Time;durP1;ratioP1;P1;durP2;ratioP2;P2;SDS_P1;SDS_P2;PMS_P1;PMS_P2;Temp;Humidity;BMP_temperature;BMP_pressure;BME280_temperature;BME280_humidity;BME280_pressure;Samples;Min_cycle;Max_cycle;Signal;HPM_P1;HPM_P2
2023/09/06 00:02:09;;;;;;;12.52;9.85;;;;;;;17.36;100.00;101969.00;10422018;28;20110;-67
2023/09/06 00:07:10;;;;;;;13.55;9.85;;;;;;;17.30;100.00;101970.09;10417984;28;20493;-67
2023/09/06 00:12:11;;;;;;;12.23;10.23;;;;;;;17.28;100.00;101972.31;10428693;28;20037;-67
2023/09/06 00:17:11;;;;;;;13.98;9.75;;;;;;;17.24;100.00;101971.19;10420603;28;20498;-66
2023/09/06 00:22:11;;;;;;;14.40;10.88;;;;;;;17.23;100.00;101969.53;10419711;28;20057;-67
2023/09/06 00:27:14;;;;;;;15.50;10.93;;;;;;;17.20;100.00;101970.91;10420849;28;20503;-66
2023/09/06 00:32:14;;;;;;;16.10;11.02;;;;;;;17.20;100.00;101972.84;10418617;28;20037;-67
2023/09/06 00:37:15;;;;;;;13.75;11.02;;;;;;;17.20;100.00;101970.06;10411939;28;20033;-67
2023/09/06 00:42:15;;;;;;;17.67;12.18;;;;;;;17.23;100.00;101972.31;10418759;28;20041;-66
2023/09/06 00:47:16;;;;;;;18.38;12.82;;;;;;;17.17;100.00;101965.06;10425747;28;20119;-66
2023/09/06 00:52:17;;;;;;;17.80;12.02;;;;;;;17.14;100.00;101967.28;10430609;28;20033;-66
2023/09/06 00:57:17;;;;;;;17.58;11.93;;;;;;;17.07;100.00;101961.09;10437270;28;20038;-67
2023/09/06 01:02:18;;;;;;;20.45;14.02;;;;;;;17.06;100.00;101953.06;10427802;28;20042;-67
2023/09/06 01:07:19;;;;;;;18.98;13.75;;;;;;;17.08;100.00;101954.44;10427087;28;20033;-67
2023/09/06 01:12:19;;;;;;;19.63;15.48;;;;;;;17.11;100.00;101965.03;10421458;28;20057;-67
2023/09/06 01:17:20;;;;;;;20.52;15.73;;;;;;;17.11;100.00;101961.41;10430681;28;20041;-67
2023/09/06 01:22:26;;;;;;;19.00;15.25;;;;;;;17.12;100.00;101960.31;10428903;28;20432;-67
2023/09/06 01:27:26;;;;;;;17.33;14.07;;;;;;;17.10;100.00;101966.16;10423483;28;20099;-67
2023/09/06 01:32:27;;;;;;;20.15;14.70;;;;;;;17.07;100.00;101963.06;10419851;28;20040;-68
2023/09/06 01:37:27;;;;;;;18.25;14.35;;;;;;;17.06;100.00;101965.00;10429990;28;20072;-67
2023/09/06 01:42:28;;;;;;;20.85;15.07;;;;;;;17.03;100.00;101965.56;10428812;28;20045;-67
2023/09/06 01:47:28;;;;;;;20.98;15.27;;;;;;;17.01;100.00;101959.44;10431274;28;20061;-67
2023/09/06 01:52:28;;;;;;;18.83;14.15;;;;;;;16.86;100.00;101948.22;10426585;28;20037;-67
2023/09/06 01:57:29;;;;;;;17.77;13.40;;;;;;;16.88;100.00;101968.25;10423468;28;20602;-67
2023/09/06 02:02:30;;;;;;;18.23;14.52;;;;;;;16.64;100.00;101948.34;10420892;28;20097;-67
2023/09/06 02:07:30;;;;;;;18.15;13.80;;;;;;;16.64;100.00;101968.66;10428848;28;20041;-66
2023/09/06 02:12:31;;;;;;;16.88;13.45;;;;;;;16.53;100.00;101978.03;10435638;28;20045;-67
2023/09/06 02:17:32;;;;;;;20.58;14.55;;;;;;;16.42;100.00;101970.72;10403890;28;20033;-67
2023/09/06 02:22:34;;;;;;;19.30;14.40;;;;;;;16.34;100.00;101970.13;10436098;28;20122;-67
2023/09/06 02:27:35;;;;;;;21.50;14.48;;;;;;;16.25;100.00;101962.56;10442806;28;20041;-67
2023/09/06 02:32:35;;;;;;;19.00;15.02;;;;;;;16.18;100.00;101954.44;10422755;28;20037;-67
2023/09/06 02:37:36;;;;;;;20.85;16.02;;;;;;;16.18;100.00;101965.53;10434720;28;20045;-67
2023/09/06 02:42:36;;;;;;;20.95;16.10;;;;;;;16.07;100.00;101963.78;10435438;28;20041;-67
2023/09/06 02:47:47;;;;;;;19.65;15.52;;;;;;;16.02;100.00;101978.47;10437883;28;20052;-67
2023/09/06 02:52:50;;;;;;;19.05;15.70;;;;;;;15.98;100.00;101980.09;10436022;28;20040;-69
2023/09/06 02:57:51;;;;;;;22.75;15.55;;;;;;;15.90;100.00;101983.38;10438871;28;20041;-67
2023/09/06 03:03:06;;;;;;;18.45;14.95;;;;;;;15.83;100.00;101979.94;10436876;28;20095;-68
2023/09/06 03:08:07;;;;;;;20.80;15.55;;;;;;;15.79;100.00;101987.13;10436998;28;20067;-67
2023/09/06 03:13:11;;;;;;;24.92;16.35;;;;;;;15.76;100.00;101984.88;10435395;28;20052;-67
2023/09/06 03:18:11;;;;;;;21.20;15.95;;;;;;;15.73;100.00;101980.72;10439429;28;20507;-67
2023/09/06 03:23:19;;;;;;;22.52;16.75;;;;;;;15.69;100.00;101990.63;10436936;28;20036;-68
2023/09/06 03:28:20;;;;;;;25.92;16.80;;;;;;;15.62;100.00;101990.81;10439763;28;21108;-68
2023/09/06 03:33:20;;;;;;;24.33;18.58;;;;;;;15.62;100.00;102001.09;10436887;28;20045;-68
2023/09/06 03:38:25;;;;;;;21.95;17.75;;;;;;;15.59;100.00;102004.41;10436130;28;20044;-67
2023/09/06 03:43:32;;;;;;;26.30;17.70;;;;;;;15.62;100.00;101998.31;10437662;28;20096;-67
2023/09/06 03:48:32;;;;;;;24.15;18.00;;;;;;;15.12;100.00;101920.59;10431052;28;20033;-67
2023/09/06 03:53:37;;;;;;;24.92;17.30;;;;;;;15.54;100.00;102006.00;10436006;28;20045;-67
2023/09/06 03:58:37;;;;;;;21.73;16.88;;;;;;;15.50;100.00;102010.41;10419222;28;20041;-67
2023/09/06 04:03:38;;;;;;;23.90;16.92;;;;;;;15.47;100.00;102005.34;10433734;28;20428;-67
2023/09/06 04:08:39;;;;;;;25.65;18.67;;;;;;;15.52;100.00;102007.34;10434752;28;20070;-67
2023/09/06 04:13:39;;;;;;;24.08;17.83;;;;;;;15.54;100.00;101999.59;10433355;28;20068;-67
2023/09/06 04:18:42;;;;;;;29.63;19.17;;;;;;;15.56;100.00;102004.91;10437245;28;20402;-67
2023/09/06 04:23:43;;;;;;;20.60;17.33;;;;;;;15.52;100.00;102002.66;10431881;28;20049;-67
2023/09/06 04:28:44;;;;;;;21.55;17.75;;;;;;;15.51;100.00;101998.19;10438545;28;20037;-67
2023/09/06 04:33:45;;;;;;;22.15;17.67;;;;;;;15.51;100.00;101994.59;10431332;28;20414;-67
2023/09/06 04:38:46;;;;;;;23.13;16.63;;;;;;;15.53;100.00;101997.94;10437885;28;20552;-67
2023/09/06 04:43:47;;;;;;;20.13;15.95;;;;;;;15.52;100.00;101994.34;10435904;28;20033;-66
2023/09/06 04:48:47;;;;;;;21.63;16.55;;;;;;;15.50;100.00;101988.19;10430344;28;20160;-67
2023/09/06 04:53:49;;;;;;;19.75;15.23;;;;;;;15.51;100.00;101998.19;10434955;28;20037;-67
2023/09/06 04:58:49;;;;;;;20.77;15.63;;;;;;;15.48;100.00;102001.50;10432909;28;20041;-67
2023/09/06 05:03:49;;;;;;;20.88;14.32;;;;;;;15.46;100.00;102000.06;10436264;28;20040;-67
2023/09/06 05:08:50;;;;;;;17.67;13.98;;;;;;;15.42;100.00;102008.09;10431926;28;20072;-67
2023/09/06 05:13:52;;;;;;;18.30;14.40;;;;;;;15.38;100.00;102004.16;10433440;28;20075;-67
2023/09/06 05:18:52;;;;;;;19.90;15.68;;;;;;;15.38;100.00;102006.94;10416501;28;20125;-67
2023/09/06 05:23:53;;;;;;;18.55;14.20;;;;;;;15.46;100.00;102003.69;10429949;28;20496;-68
2023/09/06 05:28:53;;;;;;;18.30;14.30;;;;;;;15.48;100.00;102017.28;10433732;28;20968;-68
2023/09/06 05:33:54;;;;;;;18.35;14.73;;;;;;;15.45;100.00;102017.81;10442437;28;20044;-67
2023/09/06 05:38:54;;;;;;;20.50;13.25;;;;;;;15.50;100.00;102020.66;10419335;28;20034;-66
2023/09/06 05:43:55;;;;;;;16.33;12.82;;;;;;;15.60;100.00;102014.38;10443014;28;20060;-67
2023/09/06 05:48:55;;;;;;;16.88;13.57;;;;;;;15.70;100.00;102025.59;10435008;28;20037;-67
2023/09/06 05:53:56;;;;;;;16.67;13.45;;;;;;;15.75;100.00;102022.94;10442817;28;20048;-67
2023/09/06 05:58:56;;;;;;;14.60;11.85;;;;;;;15.79;100.00;102028.78;10435410;28;20045;-67
2023/09/06 06:03:56;;;;;;;16.35;11.95;;;;;;;15.83;100.00;102036.31;10440454;28;20037;-67
2023/09/06 06:08:57;;;;;;;17.90;12.48;;;;;;;15.89;100.00;102026.94;10436267;28;20045;-67
2023/09/06 06:13:57;;;;;;;15.90;11.68;;;;;;;16.11;100.00;102037.16;10439315;28;20037;-66
2023/09/06 06:18:58;;;;;;;16.17;12.02;;;;;;;16.51;100.00;102038.59;10439068;28;20049;-68
2023/09/06 06:23:58;;;;;;;14.18;9.35;;;;;;;16.89;100.00;102047.84;10435814;28;20039;-67
2023/09/06 06:28:59;;;;;;;14.32;8.68;;;;;;;17.15;100.00;102057.97;10435170;28;20033;-67
2023/09/06 06:34:00;;;;;;;8.27;7.25;;;;;;;17.45;100.00;102061.22;10439774;28;20068;-67
2023/09/06 06:39:00;;;;;;;8.75;7.47;;;;;;;17.81;100.00;102064.94;10437198;28;20309;-67
2023/09/06 06:44:01;;;;;;;9.07;6.80;;;;;;;18.10;100.00;102064.47;10433274;28;20497;-67
2023/09/06 06:49:04;;;;;;;9.10;6.07;;;;;;;18.40;100.00;102071.19;10440882;28;20040;-68
2023/09/06 06:54:06;;;;;;;11.95;6.15;;;;;;;18.63;100.00;102058.66;10432813;28;20041;-68
2023/09/06 06:59:07;;;;;;;9.05;5.28;;;;;;;18.93;100.00;102069.81;10442130;28;20404;-68
2023/09/06 07:04:08;;;;;;;10.07;5.93;;;;;;;19.19;100.00;102071.69;10433200;28;20034;-67
2023/09/06 07:09:08;;;;;;;7.03;4.55;;;;;;;19.36;100.00;102075.00;10438174;28;20038;-67
2023/09/06 07:14:08;;;;;;;5.50;4.30;;;;;;;19.59;100.00;102086.63;10439841;28;20563;-67
2023/09/06 07:19:09;;;;;;;5.22;3.83;;;;;;;19.77;100.00;102083.22;10436224;28;20041;-67
2023/09/06 07:24:13;;;;;;;9.75;4.43;;;;;;;19.98;100.00;102083.13;10437468;28;20048;-67
2023/09/06 07:29:13;;;;;;;8.98;3.80;;;;;;;20.16;100.00;102090.84;10433571;28;20106;-67
2023/09/06 07:34:14;;;;;;;4.82;3.65;;;;;;;20.38;100.00;102090.38;10436757;28;20034;-67
2023/09/06 07:39:15;;;;;;;5.57;3.75;;;;;;;20.56;100.00;102095.25;10435766;28;20120;-67
2023/09/06 07:44:15;;;;;;;4.68;3.00;;;;;;;20.75;100.00;102094.56;10436525;28;20032;-68
2023/09/06 07:49:16;;;;;;;4.28;3.35;;;;;;;20.91;100.00;102095.28;10433441;28;20045;-67
2023/09/06 07:54:16;;;;;;;4.88;2.67;;;;;;;21.12;100.00;102105.13;10439037;28;20430;-67
2023/09/06 07:59:20;;;;;;;4.05;2.53;;;;;;;21.30;100.00;102102.72;10432389;28;20049;-65
2023/09/06 08:04:21;;;;;;;3.22;2.20;;;;;;;21.48;100.00;102103.94;10433932;28;20630;-68
2023/09/06 08:09:22;;;;;;;4.50;2.33;;;;;;;21.65;100.00;102100.66;10434807;28;20167;-67
2023/09/06 08:14:22;;;;;;;2.65;2.10;;;;;;;21.78;100.00;102102.72;10419494;28;20049;-67
2023/09/06 08:19:22;;;;;;;2.00;1.50;;;;;;;22.02;100.00;102102.66;10423775;28;20087;-66
2023/09/06 08:24:24;;;;;;;2.17;1.90;;;;;;;22.23;100.00;102092.00;10433212;28;20978;-68
2023/09/06 08:29:25;;;;;;;1.60;1.42;;;;;;;22.51;100.00;102092.97;10430534;28;20037;-67
2023/09/06 08:34:25;;;;;;;3.83;1.88;;;;;;;22.76;100.00;102097.31;10419012;28;20037;-68
2023/09/06 08:39:25;;;;;;;3.83;2.00;;;;;;;23.08;100.00;102094.81;10414705;28;20405;-68
2023/09/06 08:44:26;;;;;;;1.83;1.35;;;;;;;23.41;100.00;102092.75;10424844;28;20068;-68
2023/09/06 08:49:27;;;;;;;3.03;1.60;;;;;;;23.72;100.00;102083.66;10419344;28;20108;-68
2023/09/06 08:54:27;;;;;;;6.25;1.25;;;;;;;24.02;100.00;102086.97;10437706;28;20091;-68
2023/09/06 08:59:31;;;;;;;1.73;1.40;;;;;;;24.37;100.00;102085.28;10435965;28;20041;-68
2023/09/06 09:04:32;;;;;;;3.53;1.52;;;;;;;24.69;100.00;102092.66;10465184;28;20039;-68
2023/09/06 09:09:54;;;;;;;7.38;1.30;;;;;;;24.95;100.00;102081.56;10443148;28;20435;-69
2023/09/06 09:14:56;;;;;;;2.00;1.20;;;;;;;25.22;100.00;102078.88;10445481;28;20047;-69
2023/09/06 09:20:00;;;;;;;3.30;1.77;;;;;;;25.42;100.00;102072.66;10441937;28;20109;-68
2023/09/06 09:25:08;;;;;;;3.30;1.30;;;;;;;25.56;100.00;102061.25;10355305;28;20169;-69
2023/09/06 09:30:14;;;;;;;5.88;1.58;;;;;;;25.88;100.00;102073.25;10353797;28;20387;-69
2023/09/06 09:35:14;;;;;;;2.17;1.30;;;;;;;26.15;100.00;102073.00;10412091;28;20088;-69
2023/09/06 09:40:20;;;;;;;2.42;1.35;;;;;;;26.41;100.00;102060.84;10441975;28;20108;-69
2023/09/06 09:45:24;;;;;;;3.60;1.63;;;;;;;26.69;100.00;102061.34;10422748;28;20047;-69
2023/09/06 09:50:25;;;;;;;3.45;1.35;;;;;;;26.83;100.00;102054.63;10419126;28;20081;-69
2023/09/06 09:55:31;;;;;;;3.08;1.40;;;;;;;26.97;100.00;102049.59;10445577;28;20045;-70
2023/09/06 10:00:32;;;;;;;2.03;1.60;;;;;;;27.16;100.00;102047.22;10442187;28;20048;-69
2023/09/06 10:05:33;;;;;;;2.58;1.45;;;;;;;27.28;100.00;102037.19;10428335;28;20056;-70
2023/09/06 10:10:33;;;;;;;2.65;1.17;;;;;;;27.44;100.00;102045.94;10419077;28;20499;-70
2023/09/06 10:15:34;;;;;;;5.85;1.10;;;;;;;27.49;100.00;102037.25;10414874;28;20482;-68
2023/09/06 10:20:37;;;;;;;3.00;1.20;;;;;;;27.62;100.00;102030.50;10394851;28;20049;-70
2023/09/06 10:25:39;;;;;;;3.28;1.38;;;;;;;27.96;100.00;102037.94;10397512;28;20089;-69
2023/09/06 10:30:45;;;;;;;2.97;1.20;;;;;;;28.13;100.00;102027.63;10398930;28;20041;-69
2023/09/06 10:35:45;;;;;;;3.00;1.65;;;;;;;28.42;100.00;102034.34;10394147;28;20041;-69
2023/09/06 10:40:49;;;;;;;3.88;1.30;;;;;;;28.54;100.00;102011.75;10396972;28;20219;-69
2023/09/06 10:46:19;;;;;;;3.42;1.52;;;;;;;28.71;100.00;102010.72;10393396;28;20046;-70
2023/09/06 10:51:19;;;;;;;2.35;0.80;;;;;;;28.93;100.00;102015.16;10392280;28;20042;-71
2023/09/06 10:56:29;;;;;;;1.77;1.42;;;;;;;29.13;100.00;102016.25;10395679;28;20041;-69
2023/09/06 11:01:32;;;;;;;2.22;1.20;;;;;;;29.27;100.00;102005.38;10395415;28;20072;-70
2023/09/06 11:06:49;;;;;;;3.28;1.00;;;;;;;29.41;100.00;102010.66;10390229;28;20099;-68
2023/09/06 11:11:52;;;;;;;2.83;1.52;;;;;;;29.48;100.00;102002.41;10392399;28;20102;-69
2023/09/06 11:16:53;;;;;;;3.42;1.20;;;;;;;29.64;100.00;102004.50;10394609;28;20064;-69
2023/09/06 11:22:06;;;;;;;1.95;1.40;;;;;;;29.80;100.00;101996.91;10396854;28;20484;-66
2023/09/06 11:27:16;;;;;;;2.03;1.50;;;;;;;30.14;100.00;102006.84;10393451;28;20048;-69
2023/09/06 11:32:17;;;;;;;2.50;1.45;;;;;;;30.37;100.00;101997.78;10395384;28;20095;-72
2023/09/06 11:37:18;;;;;;;2.95;1.20;;;;;;;30.13;100.00;101998.69;10407087;28;20064;-75
2023/09/06 11:42:20;;;;;;;2.78;1.23;;;;;;;30.04;100.00;102000.88;10391715;28;20473;-70
2023/09/06 11:47:23;;;;;;;2.20;1.27;;;;;;;30.14;100.00;101994.66;10375960;28;20049;-73
2023/09/06 11:52:23;;;;;;;4.18;1.23;;;;;;;30.29;100.00;101990.22;10394684;28;20497;-72
2023/09/06 11:57:27;;;;;;;3.17;1.02;;;;;;;30.67;100.00;101983.97;10374765;28;20033;-72
2023/09/06 12:02:30;;;;;;;1.60;1.10;;;;;;;31.13;98.14;101970.13;10391671;28;20100;-72
2023/09/06 12:07:31;;;;;;;3.38;2.08;;;;;;;31.80;96.28;101966.38;10391995;28;20128;-71
2023/09/06 12:12:42;;;;;;;3.40;1.27;;;;;;;33.00;93.46;101958.88;10393119;28;20053;-72
2023/09/06 12:17:45;;;;;;;3.75;2.20;;;;;;;33.53;85.14;101939.69;10392943;28;20556;-72
2023/09/06 12:22:49;;;;;;;3.15;1.10;;;;;;;33.93;85.42;101955.31;10394382;28;20061;-72
2023/09/06 12:27:50;;;;;;;2.07;1.03;;;;;;;34.86;82.89;101951.78;10392422;28;20651;-72
2023/09/06 12:32:50;;;;;;;2.50;1.15;;;;;;;35.05;77.60;101937.22;10393129;28;20288;-72
2023/09/06 12:37:51;;;;;;;2.42;1.02;;;;;;;35.40;75.60;101924.38;10397290;28;20048;-73
2023/09/06 12:42:51;;;;;;;4.15;1.52;;;;;;;35.85;73.57;101925.00;10398943;28;20413;-71
2023/09/06 12:47:52;;;;;;;1.98;1.00;;;;;;;35.75;71.33;101912.25;10433678;28;20068;-72
2023/09/06 12:52:53;;;;;;;3.03;1.23;;;;;;;35.17;71.67;101925.47;10444188;28;20060;-72
2023/09/06 12:57:54;;;;;;;2.40;1.20;;;;;;;35.46;69.89;101917.03;10439435;28;20042;-73
2023/09/06 13:02:55;;;;;;;1.75;1.25;;;;;;;35.74;72.93;101929.84;10440191;28;20044;-73
2023/09/06 13:07:55;;;;;;;1.65;1.10;;;;;;;35.86;67.80;101915.16;10442526;28;20037;-73
2023/09/06 13:12:56;;;;;;;2.55;1.30;;;;;;;36.39;68.09;101912.84;10443484;28;20037;-71
2023/09/06 13:17:56;;;;;;;3.08;1.25;;;;;;;36.22;67.87;101920.19;10442954;28;20088;-72
2023/09/06 13:22:57;;;;;;;2.13;1.17;;;;;;;36.31;67.40;101912.00;10440153;28;20052;-69
2023/09/06 13:27:57;;;;;;;2.50;1.17;;;;;;;36.40;66.65;101909.56;10443914;28;21541;-71
2023/09/06 13:32:58;;;;;;;1.50;1.13;;;;;;;36.66;64.46;101902.63;10438920;28;20033;-72
2023/09/06 13:37:58;;;;;;;5.65;1.20;;;;;;;36.44;65.23;101907.50;10438191;28;20033;-71
2023/09/06 13:42:59;;;;;;;3.33;1.40;;;;;;;36.56;62.25;101895.63;10441516;28;20045;-71
2023/09/06 13:47:59;;;;;;;1.88;1.17;;;;;;;36.75;65.86;101896.47;10458802;28;20041;-72
2023/09/06 13:53:00;;;;;;;2.03;1.27;;;;;;;36.94;64.54;101887.44;10436840;28;20030;-71
2023/09/06 13:58:00;;;;;;;1.73;1.20;;;;;;;37.25;62.31;101879.19;10443947;28;20047;-72
2023/09/06 14:03:01;;;;;;;1.67;1.30;;;;;;;37.17;63.48;101883.31;10438134;28;20045;-71
2023/09/06 14:08:02;;;;;;;1.92;1.20;;;;;;;37.11;61.29;101874.28;10438824;28;20037;-73
2023/09/06 14:13:02;;;;;;;1.20;1.02;;;;;;;37.04;61.96;101877.13;10438035;28;20080;-71
2023/09/06 14:18:04;;;;;;;2.85;1.10;;;;;;;36.36;60.48;101872.28;10442041;28;20045;-71
2023/09/06 14:23:04;;;;;;;0.85;0.80;;;;;;;36.24;61.25;101877.59;10425394;28;20046;-71
2023/09/06 14:28:05;;;;;;;2.03;1.05;;;;;;;36.54;61.58;101877.19;10375848;28;20053;-72
2023/09/06 14:33:05;;;;;;;2.05;1.02;;;;;;;36.59;61.71;101884.56;10404610;28;20516;-72
2023/09/06 14:38:06;;;;;;;1.48;1.05;;;;;;;36.85;63.53;101875.53;10407657;28;20048;-72
2023/09/06 14:43:07;;;;;;;4.00;1.55;;;;;;;36.97;63.99;101880.84;10420920;28;20048;-71
2023/09/06 14:48:08;;;;;;;1.65;1.08;;;;;;;36.36;60.22;101880.91;10426945;28;20056;-71
2023/09/06 14:53:09;;;;;;;1.67;1.20;;;;;;;36.19;63.72;101886.59;10425177;28;20064;-71
2023/09/06 14:58:09;;;;;;;5.03;1.30;;;;;;;36.25;60.01;101868.59;10427886;28;20090;-72
2023/09/06 15:03:10;;;;;;;2.30;1.10;;;;;;;35.84;62.02;101871.75;10425795;28;20033;-72
2023/09/06 15:08:10;;;;;;;2.22;1.20;;;;;;;35.49;63.28;101878.19;10424760;28;20045;-70
2023/09/06 15:13:14;;;;;;;1.30;0.93;;;;;;;35.29;60.67;101860.53;10425631;28;20044;-71
2023/09/06 15:18:14;;;;;;;1.23;0.90;;;;;;;34.78;63.29;101873.69;10417344;28;20053;-71
2023/09/06 15:23:15;;;;;;;2.60;1.20;;;;;;;34.45;66.77;101877.47;10416876;28;20037;-72
2023/09/06 15:28:15;;;;;;;2.13;1.02;;;;;;;33.90;65.03;101875.28;10427066;28;20042;-71
2023/09/06 15:33:15;;;;;;;3.63;1.02;;;;;;;33.71;66.61;101884.88;10428061;28;20044;-72
2023/09/06 15:38:16;;;;;;;3.13;1.38;;;;;;;33.15;67.39;101887.38;10440046;28;20054;-72
2023/09/06 15:43:16;;;;;;;2.08;1.20;;;;;;;32.70;68.29;101892.00;10435225;28;20033;-71
2023/09/06 15:48:17;;;;;;;2.13;1.10;;;;;;;31.80;70.74;101903.72;10437065;28;20045;-70
2023/09/06 15:53:17;;;;;;;9.88;1.20;;;;;;;31.06;71.66;101900.88;10434085;28;20046;-71
2023/09/06 15:58:18;;;;;;;3.63;0.80;;;;;;;30.34;77.76;101905.56;10437930;28;20040;-71
2023/09/06 16:03:18;;;;;;;1.50;0.80;;;;;;;29.40;76.65;101863.53;10431327;28;20045;-71
2023/09/06 16:08:19;;;;;;;1.73;0.90;;;;;;;29.23;81.55;101913.69;10438488;28;20082;-71
2023/09/06 16:13:20;;;;;;;1.90;1.00;;;;;;;28.88;79.92;101917.00;10431884;28;20113;-70
2023/09/06 16:18:20;;;;;;;1.48;0.98;;;;;;;28.49;81.62;101916.50;10438063;28;20041;-70
2023/09/06 16:23:21;;;;;;;3.10;0.80;;;;;;;28.04;79.39;101906.00;10425631;28;20033;-70
2023/09/06 16:28:21;;;;;;;1.73;0.80;;;;;;;27.80;82.18;101903.88;10415955;28;20034;-72
2023/09/06 16:33:22;;;;;;;1.65;0.90;;;;;;;27.69;81.13;101911.16;10418931;28;20115;-69
2023/09/06 16:38:22;;;;;;;1.48;0.90;;;;;;;27.52;84.21;101923.44;10438760;28;20049;-70
2023/09/06 16:43:23;;;;;;;1.25;0.93;;;;;;;27.31;86.72;101923.44;10433862;28;20516;-69
2023/09/06 16:48:25;;;;;;;0.88;0.80;;;;;;;27.10;94.21;101935.50;10435509;28;20121;-70
2023/09/06 16:53:25;;;;;;;1.00;0.60;;;;;;;26.80;93.79;101937.50;10433431;28;20051;-70
2023/09/06 16:58:26;;;;;;;1.15;0.70;;;;;;;26.57;100.00;101945.41;10436125;28;20046;-69
2023/09/06 17:03:26;;;;;;;1.27;0.80;;;;;;;26.27;100.00;101959.38;10433895;28;20037;-70
2023/09/06 17:08:27;;;;;;;1.35;0.70;;;;;;;26.00;100.00;101957.78;10436536;28;20072;-69
2023/09/06 17:13:28;;;;;;;0.93;0.70;;;;;;;25.78;100.00;101961.59;10419940;28;20044;-70
2023/09/06 17:18:28;;;;;;;2.17;0.80;;;;;;;25.53;100.00;101957.63;10414815;28;20060;-70
2023/09/06 17:23:29;;;;;;;4.38;1.30;;;;;;;25.38;100.00;101961.72;10439366;28;20037;-70
2023/09/06 17:28:30;;;;;;;2.78;1.00;;;;;;;25.17;100.00;101967.94;10443535;28;20433;-70
2023/09/06 17:33:30;;;;;;;1.33;0.95;;;;;;;25.09;100.00;101963.09;10444804;28;20036;-70
2023/09/06 17:38:31;;;;;;;1.30;1.10;;;;;;;24.90;100.00;101973.81;10448594;28;20340;-67
2023/09/06 17:43:31;;;;;;;2.40;1.05;;;;;;;24.69;100.00;101968.78;10442629;28;20053;-69
2023/09/06 17:48:32;;;;;;;2.00;1.38;;;;;;;24.48;100.00;101976.09;10442829;28;20587;-70
2023/09/06 17:53:35;;;;;;;1.60;1.23;;;;;;;24.24;100.00;101974.44;10440953;28;20424;-69
2023/09/06 17:58:38;;;;;;;2.30;1.42;;;;;;;23.94;100.00;101982.50;10435108;28;20048;-67
2023/09/06 18:03:43;;;;;;;2.67;1.30;;;;;;;23.76;100.00;101975.03;10446084;28;20041;-68
2023/09/06 18:08:45;;;;;;;2.80;1.10;;;;;;;23.56;100.00;101996.03;10396051;28;20048;-68
2023/09/06 18:13:45;;;;;;;2.75;1.50;;;;;;;23.35;100.00;101992.84;10398174;28;20046;-68
2023/09/06 18:18:46;;;;;;;3.08;1.13;;;;;;;23.12;100.00;102003.16;10372767;28;20057;-67
2023/09/06 18:23:48;;;;;;;3.08;1.25;;;;;;;22.93;100.00;102006.03;10356647;28;20064;-67
2023/09/06 18:28:48;;;;;;;4.63;1.60;;;;;;;22.65;100.00;102014.41;10354550;28;20038;-68
2023/09/06 18:33:52;;;;;;;3.88;1.60;;;;;;;22.54;100.00;102018.56;10356347;28;20064;-67
2023/09/06 18:38:53;;;;;;;4.22;1.80;;;;;;;22.35;100.00;102022.25;10355161;28;20046;-67
2023/09/06 18:43:54;;;;;;;4.15;2.17;;;;;;;22.14;100.00;102020.88;10348026;28;20035;-68
2023/09/06 18:48:55;;;;;;;5.65;1.65;;;;;;;21.98;100.00;102027.88;10360552;28;20038;-68
2023/09/06 18:53:56;;;;;;;7.10;2.00;;;;;;;21.85;100.00;102030.31;10354982;28;20113;-67
2023/09/06 18:58:57;;;;;;;7.15;1.80;;;;;;;21.72;100.00;102031.88;10385576;28;20046;-67
2023/09/06 19:03:57;;;;;;;3.75;1.90;;;;;;;21.60;100.00;102036.25;10353309;28;20044;-67
2023/09/06 19:08:58;;;;;;;2.70;1.75;;;;;;;21.49;100.00;102033.59;10361019;28;20034;-68
2023/09/06 19:13:59;;;;;;;2.35;1.67;;;;;;;21.34;100.00;102029.00;10353204;28;20038;-68
2023/09/06 19:18:59;;;;;;;4.50;1.88;;;;;;;21.28;100.00;102051.75;10349912;28;20039;-67
2023/09/06 19:24:00;;;;;;;5.25;2.03;;;;;;;21.21;100.00;102054.06;10374787;28;20049;-67
2023/09/06 19:29:00;;;;;;;3.58;2.17;;;;;;;21.12;100.00;102049.13;10354007;28;20062;-67
2023/09/06 19:34:01;;;;;;;3.35;2.08;;;;;;;21.03;100.00;102059.31;10353323;28;20058;-67
2023/09/06 19:39:01;;;;;;;3.35;2.05;;;;;;;20.94;100.00;102066.72;10347908;28;20030;-67
2023/09/06 19:44:02;;;;;;;2.83;1.75;;;;;;;20.85;100.00;102062.88;10352205;28;20495;-67
2023/09/06 19:49:02;;;;;;;6.45;2.38;;;;;;;20.78;100.00;102070.78;10350132;28;20034;-67
2023/09/06 19:54:03;;;;;;;4.10;2.55;;;;;;;20.70;100.00;102061.88;10352514;28;20045;-67
2023/09/06 19:59:06;;;;;;;3.45;2.15;;;;;;;20.65;100.00;102067.53;10353271;28;20069;-67
2023/09/06 20:04:08;;;;;;;4.25;2.67;;;;;;;20.57;100.00;102054.16;10350939;28;20104;-66
2023/09/06 20:09:08;;;;;;;5.85;2.60;;;;;;;20.51;100.00;102060.94;10375932;28;20366;-67
2023/09/06 20:14:10;;;;;;;3.90;2.42;;;;;;;20.39;100.00;102054.88;10390107;28;20045;-66
2023/09/06 20:19:10;;;;;;;6.10;2.40;;;;;;;20.38;100.00;102058.78;10365369;28;20096;-67
2023/09/06 20:24:11;;;;;;;6.53;2.70;;;;;;;20.32;100.00;102056.03;10368129;28;20034;-66
2023/09/06 20:29:12;;;;;;;3.35;2.28;;;;;;;20.24;100.00;102059.47;10369552;28;20038;-67
2023/09/06 20:34:12;;;;;;;5.18;2.40;;;;;;;20.14;100.00;102049.16;10357239;28;20038;-67
2023/09/06 20:39:13;;;;;;;4.30;2.38;;;;;;;20.17;100.00;102058.94;10352299;28;20042;-67
2023/09/06 20:44:15;;;;;;;4.18;2.00;;;;;;;20.14;100.00;102065.13;10350751;28;20070;-68
2023/09/06 20:49:16;;;;;;;7.28;2.22;;;;;;;20.11;100.00;102069.34;10350708;28;20042;-67
2023/09/06 20:54:16;;;;;;;4.07;2.03;;;;;;;20.07;100.00;102070.19;10352352;28;20045;-68
2023/09/06 20:59:17;;;;;;;5.07;2.15;;;;;;;20.05;100.00;102070.50;10355013;28;20038;-67
2023/09/06 21:04:17;;;;;;;9.25;3.10;;;;;;;20.03;100.00;102069.94;10389794;28;20039;-66
2023/09/06 21:09:18;;;;;;;3.53;1.73;;;;;;;20.02;100.00;102073.03;10357403;28;20054;-67
2023/09/06 21:14:18;;;;;;;4.72;2.17;;;;;;;19.93;100.00;102082.03;10395618;28;20045;-68
2023/09/06 21:19:19;;;;;;;3.97;2.85;;;;;;;19.94;100.00;102077.25;10388345;28;20050;-69
2023/09/06 21:24:19;;;;;;;3.72;1.95;;;;;;;19.95;100.00;102073.34;10356910;28;20038;-67
2023/09/06 21:29:20;;;;;;;3.50;2.42;;;;;;;19.93;100.00;102076.44;10358099;28;20034;-68
2023/09/06 21:34:22;;;;;;;7.45;2.78;;;;;;;19.89;100.00;102083.72;10360277;28;20038;-68
2023/09/06 21:39:23;;;;;;;3.78;2.30;;;;;;;19.82;100.00;102091.56;10351870;28;20053;-67
2023/09/06 21:44:24;;;;;;;5.53;3.03;;;;;;;19.72;100.00;102089.69;10357546;28;20100;-67
2023/09/06 21:49:24;;;;;;;3.75;2.30;;;;;;;19.63;100.00;102094.16;10355975;28;21175;-67
2023/09/06 21:54:25;;;;;;;5.00;2.50;;;;;;;19.49;100.00;102091.16;10356270;28;20383;-67
2023/09/06 21:59:25;;;;;;;3.72;2.38;;;;;;;19.43;100.00;102095.09;10362308;28;20552;-66
2023/09/06 22:04:26;;;;;;;4.50;2.10;;;;;;;19.34;100.00;102103.19;10358169;28;20034;-67
2023/09/06 22:09:26;;;;;;;7.03;2.65;;;;;;;19.27;100.00;102096.25;10360824;28;20172;-67
2023/09/06 22:14:26;;;;;;;3.35;2.72;;;;;;;19.20;100.00;102104.06;10355061;28;20466;-67
2023/09/06 22:19:27;;;;;;;5.30;2.90;;;;;;;19.13;100.00;102112.75;10369994;28;20042;-67
2023/09/06 22:24:28;;;;;;;4.22;2.88;;;;;;;19.11;100.00;102099.06;10376445;28;20034;-67
2023/09/06 22:29:29;;;;;;;3.92;3.00;;;;;;;19.07;100.00;102108.28;10368933;28;20579;-67
2023/09/06 22:34:34;;;;;;;5.97;2.95;;;;;;;19.00;100.00;102114.16;10375704;28;20045;-67
2023/09/06 22:39:35;;;;;;;4.63;2.35;;;;;;;18.91;100.00;102110.25;10376966;28;20085;-67
2023/09/06 22:44:35;;;;;;;5.43;3.47;;;;;;;18.81;100.00;102113.06;10364454;28;20054;-67